Time;durP1;ratioP1;P1;durP2;ratioP2;P2;SDS_P1;SDS_P2;PMS_P1;PMS_P2;Temp;Humidity;BMP_temperature;BMP_pressure;BME280_temperature;BME280_humidity;BME280_pressure;Samples;Min_cycle;Max_cycle;Signal;HPM_P1;HPM_P2
2021/04/06 00:00:26;;;;;;;2.97;1.00;;;3.90;99.90;;;;;;5080515;28;20198;-83
2021/04/06 00:03:00;;;;;;;2.07;1.00;;;3.90;99.90;;;;;;5096494;28;20193;-82
2021/04/06 00:05:28;;;;;;;3.33;0.83;;;3.80;99.90;;;;;;5081552;28;20202;-82
2021/04/06 00:07:57;;;;;;;5.60;1.53;;;3.60;99.90;;;;;;5078797;28;20221;-85
2021/04/06 00:10:46;;;;;;;3.63;1.20;;;3.60;99.90;;;;;;5093071;28;20210;-85
2021/04/06 00:13:13;;;;;;;4.43;0.83;;;3.70;99.90;;;;;;5095879;28;20626;-84
2021/04/06 00:15:40;;;;;;;5.90;0.83;;;3.70;99.90;;;;;;5093012;28;20233;-85
2021/04/06 00:18:09;;;;;;;3.23;0.80;;;3.80;99.90;;;;;;5092202;28;20535;-85
2021/04/06 00:20:38;;;;;;;4.90;0.63;;;3.70;99.90;;;;;;5090230;28;20598;-84
2021/04/06 00:23:09;;;;;;;6.53;0.90;;;3.70;99.90;;;;;;5108806;28;20219;-85
2021/04/06 00:25:39;;;;;;;5.73;0.90;;;3.70;99.90;;;;;;5096766;28;20202;-85
2021/04/06 00:28:10;;;;;;;6.67;1.00;;;3.70;99.90;;;;;;5093542;28;20240;-82
2021/04/06 00:30:38;;;;;;;3.33;0.70;;;3.70;99.90;;;;;;5101101;28;20605;-84
2021/04/06 00:33:10;;;;;;;4.80;0.87;;;3.70;99.90;;;;;;5092291;28;20252;-83
2021/04/06 00:35:37;;;;;;;2.43;0.57;;;3.80;99.90;;;;;;5091122;28;20226;-85
2021/04/06 00:38:11;;;;;;;2.60;0.93;;;3.90;99.90;;;;;;5094973;28;20205;-83
2021/04/06 00:40:45;;;;;;;2.53;0.73;;;3.70;99.90;;;;;;5088511;28;20346;-85
2021/04/06 00:43:12;;;;;;;5.40;1.03;;;3.60;99.90;;;;;;5091141;28;20226;-84
2021/04/06 00:45:42;;;;;;;6.20;1.20;;;3.70;99.90;;;;;;5078281;28;20236;-84
2021/04/06 00:48:11;;;;;;;7.33;1.20;;;3.70;99.90;;;;;;5090488;28;20275;-84
2021/04/06 00:50:39;;;;;;;4.47;0.97;;;3.70;99.90;;;;;;5095847;28;20199;-83
2021/04/06 00:53:05;;;;;;;8.63;1.10;;;3.90;99.90;;;;;;5088271;28;20715;-85
2021/04/06 00:55:40;;;;;;;6.83;1.13;;;3.70;99.90;;;;;;5075000;28;20603;-85
2021/04/06 00:58:17;;;;;;;11.83;1.30;;;3.80;99.90;;;;;;5074257;28;20583;-84
2021/04/06 01:00:44;;;;;;;7.33;1.47;;;3.80;99.90;;;;;;5073222;28;20272;-83
2021/04/06 01:03:17;;;;;;;7.00;1.47;;;3.90;99.90;;;;;;5089433;28;20202;-84
2021/04/06 01:05:59;;;;;;;8.07;1.60;;;3.80;99.90;;;;;;5090563;28;20195;-84
2021/04/06 01:08:28;;;;;;;11.20;2.10;;;3.80;99.90;;;;;;5086497;28;21988;-84
2021/04/06 01:10:55;;;;;;;7.90;1.70;;;3.80;99.90;;;;;;5091979;28;20696;-85
2021/04/06 01:13:24;;;;;;;6.97;1.67;;;3.80;99.90;;;;;;5090749;28;20198;-82
2021/04/06 01:15:51;;;;;;;5.33;1.60;;;3.90;99.90;;;;;;5058619;28;20205;-84
2021/04/06 01:18:18;;;;;;;6.93;1.53;;;3.90;99.90;;;;;;5086799;28;20252;-84
2021/04/06 01:20:45;;;;;;;12.17;1.63;;;3.90;99.90;;;;;;5090617;28;20231;-85
2021/04/06 01:23:17;;;;;;;11.77;1.40;;;3.80;99.90;;;;;;5090579;28;20261;-85
2021/04/06 01:25:45;;;;;;;9.70;1.10;;;3.80;99.90;;;;;;5078087;28;20199;-85
2021/04/06 01:28:12;;;;;;;3.33;1.00;;;3.70;99.90;;;;;;5075216;28;20233;-84
2021/04/06 01:30:45;;;;;;;2.83;1.23;;;3.60;99.90;;;;;;5091480;28;20206;-85
2021/04/06 01:33:14;;;;;;;8.47;1.40;;;3.70;99.90;;;;;;5091699;28;20206;-84
2021/04/06 01:35:45;;;;;;;2.73;1.00;;;3.80;99.90;;;;;;5092923;28;20772;-84
2021/04/06 01:38:14;;;;;;;4.80;0.57;;;3.80;99.90;;;;;;5092512;28;20194;-86
2021/04/06 01:40:42;;;;;;;2.90;0.60;;;3.80;99.90;;;;;;5078496;28;20230;-84
2021/04/06 01:43:11;;;;;;;2.93;0.60;;;3.90;99.90;;;;;;5073598;28;20251;-84
2021/04/06 01:45:44;;;;;;;3.77;0.90;;;3.90;99.90;;;;;;5092776;28;20676;-86
2021/04/06 01:48:18;;;;;;;8.07;0.80;;;3.90;99.90;;;;;;5077164;28;20222;-85
2021/04/06 01:50:50;;;;;;;6.17;0.70;;;3.90;99.90;;;;;;5088883;28;20317;-85
2021/04/06 01:53:17;;;;;;;4.27;0.77;;;3.90;99.90;;;;;;5096144;28;20302;-85
2021/04/06 01:55:52;;;;;;;4.43;1.00;;;4.00;99.90;;;;;;5081840;28;20215;-84
2021/04/06 01:58:20;;;;;;;2.40;0.53;;;4.00;99.90;;;;;;5088674;28;20260;-85
2021/04/06 02:03:37;;;;;;;4.67;0.57;;;3.80;99.90;;;;;;5094221;28;20202;-85
2021/04/06 02:06:06;;;;;;;1.63;0.77;;;3.70;99.90;;;;;;5075531;28;20229;-84
2021/04/06 02:08:32;;;;;;;3.63;0.63;;;3.70;99.90;;;;;;5082981;28;20191;-85
2021/04/06 02:11:00;;;;;;;4.20;1.37;;;3.60;99.90;;;;;;5076065;28;20213;-84
2021/04/06 02:13:26;;;;;;;5.50;1.10;;;3.70;99.90;;;;;;5077917;28;20208;-85
2021/04/06 02:15:59;;;;;;;7.47;0.87;;;3.50;99.90;;;;;;5090733;28;20201;-83
2021/04/06 02:18:27;;;;;;;3.73;0.87;;;3.70;99.90;;;;;;5092145;28;20210;-86
2021/04/06 02:20:59;;;;;;;5.90;0.60;;;3.70;99.90;;;;;;5094814;28;20200;-83
2021/04/06 02:23:35;;;;;;;4.10;0.83;;;3.90;99.90;;;;;;5110829;28;20211;-83
2021/04/06 02:26:03;;;;;;;5.33;0.83;;;3.70;99.90;;;;;;5093976;28;20267;-83
2021/04/06 02:28:29;;;;;;;8.27;1.27;;;3.60;99.90;;;;;;5089873;28;20213;-84
2021/04/06 02:30:58;;;;;;;7.77;1.67;;;3.70;99.90;;;;;;5075521;28;20210;-86
2021/04/06 02:33:27;;;;;;;5.97;1.23;;;3.80;99.90;;;;;;5091288;28;20260;-85
2021/04/06 02:36:04;;;;;;;6.53;1.00;;;3.70;99.90;;;;;;5091265;28;20203;-85
2021/04/06 02:38:38;;;;;;;4.07;1.00;;;3.70;99.90;;;;;;5103259;28;20194;-84
2021/04/06 02:41:16;;;;;;;5.93;1.73;;;3.60;99.90;;;;;;5088527;28;20218;-85
2021/04/06 02:43:45;;;;;;;6.90;1.33;;;3.70;99.90;;;;;;5094159;28;20259;-84
2021/04/06 02:46:14;;;;;;;11.70;1.50;;;3.70;99.90;;;;;;5091276;28;20309;-85
2021/04/06 02:48:48;;;;;;;8.53;0.97;;;3.70;99.90;;;;;;5090181;28;20186;-85
2021/04/06 02:51:16;;;;;;;9.17;1.53;;;3.70;99.90;;;;;;5071543;28;20213;-83
2021/04/06 02:53:46;;;;;;;7.03;1.13;;;3.50;99.90;;;;;;5089563;28;20210;-85
2021/04/06 02:56:29;;;;;;;11.97;1.87;;;3.60;99.90;;;;;;5078722;28;20203;-84
2021/04/06 02:59:17;;;;;;;5.37;1.33;;;3.60;99.90;;;;;;5088053;28;20198;-85
2021/04/06 03:01:58;;;;;;;6.20;0.87;;;3.70;99.90;;;;;;5092412;28;20203;-84
2021/04/06 03:04:27;;;;;;;4.50;0.77;;;3.60;99.90;;;;;;5092713;28;20214;-85
2021/04/06 03:06:59;;;;;;;3.77;1.17;;;3.60;99.90;;;;;;5072203;28;20199;-85
2021/04/06 03:09:26;;;;;;;5.17;1.17;;;3.50;99.90;;;;;;5088717;28;20198;-85
2021/04/06 03:11:57;;;;;;;10.30;1.60;;;3.50;99.90;;;;;;5090907;28;20206;-84
2021/04/06 03:14:25;;;;;;;9.20;1.53;;;3.50;99.90;;;;;;5078915;28;20218;-85
2021/04/06 03:16:53;;;;;;;8.43;1.30;;;3.30;99.90;;;;;;5093004;28;20271;-85
2021/04/06 03:19:30;;;;;;;7.37;1.17;;;3.30;99.90;;;;;;5091485;28;20191;-84
2021/04/06 03:21:59;;;;;;;7.10;1.63;;;3.40;99.90;;;;;;5090370;28;20195;-85
2021/04/06 03:24:28;;;;;;;6.27;1.70;;;3.40;99.90;;;;;;5088958;28;20266;-84
2021/04/06 03:27:05;;;;;;;4.90;1.50;;;3.40;99.90;;;;;;5088489;28;20214;-86
2021/04/06 03:29:33;;;;;;;4.57;0.87;;;3.30;99.90;;;;;;5089081;28;20233;-85
2021/04/06 03:32:00;;;;;;;5.83;1.10;;;3.40;99.90;;;;;;5090090;28;20203;-84
2021/04/06 03:34:35;;;;;;;5.20;1.20;;;3.10;99.90;;;;;;5087926;28;20210;-84
2021/04/06 03:37:06;;;;;;;6.70;1.60;;;3.00;99.90;;;;;;5088167;28;20219;-83
2021/04/06 03:39:33;;;;;;;4.30;0.93;;;3.00;99.90;;;;;;5089636;28;20213;-86
2021/04/06 03:42:03;;;;;;;3.07;1.63;;;3.10;99.90;;;;;;5072034;28;20276;-83
2021/04/06 03:44:31;;;;;;;1.87;0.83;;;3.10;99.90;;;;;;5092267;28;20205;-85
2021/04/06 03:47:03;;;;;;;3.00;0.70;;;3.10;99.90;;;;;;5092099;28;20231;-85
2021/04/06 03:49:32;;;;;;;6.13;1.43;;;2.90;99.90;;;;;;5086231;28;20211;-84
2021/04/06 03:52:07;;;;;;;3.67;0.93;;;2.90;99.90;;;;;;5091969;28;20206;-84
2021/04/06 03:54:48;;;;;;;8.83;1.07;;;2.90;99.90;;;;;;5088217;28;20796;-85
2021/04/06 03:57:43;;;;;;;4.53;1.10;;;2.90;99.90;;;;;;5089137;28;20238;-84
2021/04/06 04:00:11;;;;;;;2.50;0.73;;;3.00;99.90;;;;;;5088179;28;20203;-84
2021/04/06 04:02:38;;;;;;;9.27;0.80;;;2.90;99.90;;;;;;5091750;28;21082;-84
2021/04/06 04:05:05;;;;;;;1.80;0.67;;;2.90;99.90;;;;;;5070898;28;20201;-84
2021/04/06 04:07:35;;;;;;;7.50;1.13;;;2.90;99.90;;;;;;5090993;28;20202;-84
2021/04/06 04:10:05;;;;;;;3.57;0.93;;;2.70;99.90;;;;;;5089651;28;20656;-84
2021/04/06 04:12:31;;;;;;;2.30;0.97;;;2.80;99.90;;;;;;5100462;28;20198;-86
2021/04/06 04:14:58;;;;;;;5.90;0.90;;;2.80;99.90;;;;;;5075782;28;20215;-85
2021/04/06 04:17:27;;;;;;;2.93;1.03;;;2.70;99.90;;;;;;5086060;28;20246;-85
2021/04/06 04:19:54;;;;;;;3.50;1.20;;;2.80;99.90;;;;;;5091535;28;20195;-84
2021/04/06 04:22:20;;;;;;;5.87;0.83;;;2.80;99.90;;;;;;5090857;28;20555;-84
2021/04/06 04:24:47;;;;;;;2.90;0.80;;;2.80;99.90;;;;;;5091092;28;20206;-84
2021/04/06 04:27:13;;;;;;;3.40;0.90;;;3.00;99.90;;;;;;5090528;28;20587;-84
2021/04/06 04:29:41;;;;;;;4.43;0.80;;;2.90;99.90;;;;;;5091595;28;20214;-84
2021/04/06 04:32:13;;;;;;;2.80;0.77;;;2.80;99.90;;;;;;5063919;28;20203;-85
2021/04/06 04:34:42;;;;;;;2.97;1.13;;;2.90;99.90;;;;;;5092996;28;20214;-86
2021/04/06 04:37:09;;;;;;;2.20;0.73;;;2.70;99.90;;;;;;5081992;28;20298;-85
2021/04/06 04:39:35;;;;;;;3.40;0.80;;;2.90;99.90;;;;;;5067142;28;20216;-84
2021/04/06 04:42:02;;;;;;;5.53;1.00;;;2.70;99.90;;;;;;5080682;28;20243;-84
2021/04/06 04:44:30;;;;;;;5.07;0.90;;;2.70;99.90;;;;;;5091692;28;20292;-85
2021/04/06 04:46:57;;;;;;;3.40;1.30;;;2.60;99.90;;;;;;5090267;28;20217;-84
2021/04/06 04:49:23;;;;;;;4.60;0.60;;;2.70;99.90;;;;;;5076699;28;20261;-86
2021/04/06 04:51:50;;;;;;;4.53;0.90;;;2.80;99.90;;;;;;5076745;28;20202;-85
2021/04/06 04:54:16;;;;;;;8.70;1.27;;;2.70;99.90;;;;;;5077116;28;20214;-86
2021/04/06 04:56:42;;;;;;;10.77;0.93;;;2.80;99.90;;;;;;5094654;28;20205;-84
2021/04/06 04:59:10;;;;;;;4.17;0.90;;;2.90;99.90;;;;;;5074563;28;20198;-84
2021/04/06 05:01:38;;;;;;;3.23;1.10;;;2.90;99.90;;;;;;5061111;28;20226;-84
2021/04/06 05:04:05;;;;;;;6.83;1.20;;;3.00;99.90;;;;;;5077616;28;20796;-83
2021/04/06 05:06:31;;;;;;;5.73;0.90;;;2.90;99.90;;;;;;5079129;28;20248;-85
2021/04/06 05:09:02;;;;;;;5.90;1.27;;;2.80;99.90;;;;;;5075624;28;20214;-85
2021/04/06 05:11:29;;;;;;;2.63;0.70;;;2.90;99.90;;;;;;5093036;28;20203;-84
2021/04/06 05:13:55;;;;;;;2.53;0.90;;;2.80;99.90;;;;;;5079868;28;20650;-85
2021/04/06 05:16:22;;;;;;;5.27;0.77;;;2.90;99.90;;;;;;5081416;28;20270;-84
2021/04/06 05:18:49;;;;;;;3.37;1.17;;;3.00;99.90;;;;;;5077466;28;20197;-84
2021/04/06 05:21:15;;;;;;;6.20;0.83;;;2.90;99.90;;;;;;5091506;28;20200;-84
2021/04/06 05:23:42;;;;;;;6.23;1.30;;;2.90;99.90;;;;;;5075713;28;20226;-84
2021/04/06 05:26:09;;;;;;;7.47;1.00;;;2.90;99.90;;;;;;5092190;28;20255;-86
2021/04/06 05:28:36;;;;;;;2.47;0.73;;;3.00;99.90;;;;;;5089450;28;20631;-85
2021/04/06 05:31:02;;;;;;;3.53;1.17;;;3.20;99.90;;;;;;5078905;28;20233;-85
2021/04/06 05:33:29;;;;;;;5.40;1.10;;;3.00;99.90;;;;;;5080158;28;20275;-85
2021/04/06 05:35:55;;;;;;;4.03;1.17;;;3.00;99.90;;;;;;5083786;28;20283;-84
2021/04/06 05:38:22;;;;;;;4.47;1.60;;;3.00;99.90;;;;;;5078894;28;20195;-85
2021/04/06 05:40:51;;;;;;;4.77;1.20;;;2.80;99.90;;;;;;5073614;28;20217;-83
2021/04/06 05:43:18;;;;;;;8.40;1.73;;;2.80;99.90;;;;;;5094785;28;20241;-83
2021/04/06 05:45:49;;;;;;;2.97;0.87;;;2.60;99.90;;;;;;5091693;28;20206;-83
2021/04/06 05:48:17;;;;;;;6.50;0.93;;;2.70;99.90;;;;;;5076284;28;20223;-84
2021/04/06 05:50:46;;;;;;;3.87;0.93;;;2.60;99.90;;;;;;5092319;28;20289;-83
2021/04/06 05:53:14;;;;;;;7.63;1.17;;;2.70;99.90;;;;;;5092911;28;20204;-82
2021/04/06 05:55:41;;;;;;;4.23;1.00;;;2.70;99.90;;;;;;5093916;28;20210;-82
2021/04/06 05:58:10;;;;;;;3.23;0.83;;;2.60;99.90;;;;;;5087785;28;20232;-83
2021/04/06 06:00:37;;;;;;;2.37;1.00;;;2.60;99.90;;;;;;5086732;28;20646;-84
2021/04/06 06:03:06;;;;;;;3.50;1.00;;;2.70;99.90;;;;;;5087156;28;20256;-84
2021/04/06 06:05:32;;;;;;;2.33;0.63;;;2.70;99.90;;;;;;5071236;28;20540;-84
2021/04/06 06:08:02;;;;;;;0.70;0.50;;;2.60;99.90;;;;;;5076749;28;20620;-84
2021/04/06 06:10:31;;;;;;;3.73;1.07;;;2.90;99.90;;;;;;5092668;28;20203;-82
2021/04/06 06:13:23;;;;;;;6.73;1.07;;;2.70;99.90;;;;;;5081400;28;20657;-82
2021/04/06 06:16:11;;;;;;;4.47;0.70;;;2.80;99.90;;;;;;5083351;28;20234;-83
2021/04/06 06:19:02;;;;;;;5.10;0.90;;;2.90;99.90;;;;;;5085607;28;20587;-81
2021/04/06 06:21:49;;;;;;;2.80;0.70;;;2.70;99.90;;;;;;5085177;28;20560;-82
2021/04/06 06:24:33;;;;;;;4.00;0.97;;;2.70;99.90;;;;;;5086030;28;20198;-82
2021/04/06 06:27:01;;;;;;;2.03;0.70;;;2.90;99.90;;;;;;5081894;28;20199;-82
2021/04/06 06:29:42;;;;;;;2.57;0.57;;;2.80;99.90;;;;;;5081301;28;20210;-81
2021/04/06 06:32:19;;;;;;;3.43;0.70;;;3.00;99.90;;;;;;5074306;28;20233;-83
2021/04/06 06:34:48;;;;;;;2.10;1.17;;;3.10;99.90;;;;;;5084258;28;20271;-80
2021/04/06 06:37:28;;;;;;;3.50;0.87;;;3.30;99.90;;;;;;5070124;28;20288;-80
2021/04/06 06:39:56;;;;;;;8.37;1.87;;;3.00;99.90;;;;;;5081378;28;20240;-81
2021/04/06 06:42:35;;;;;;;10.43;1.03;;;3.10;99.90;;;;;;5089576;28;20230;-81
2021/04/06 06:45:05;;;;;;;3.37;0.93;;;3.10;99.90;;;;;;5086964;28;20257;-81
2021/04/06 06:47:32;;;;;;;5.80;1.20;;;3.10;99.90;;;;;;5103452;28;20210;-81
2021/04/06 06:50:10;;;;;;;1.67;0.70;;;3.40;99.90;;;;;;5071826;28;20241;-83
2021/04/06 06:52:37;;;;;;;4.27;1.07;;;3.30;99.90;;;;;;5067817;28;20656;-82
2021/04/06 06:55:23;;;;;;;1.97;0.50;;;3.20;99.90;;;;;;5090621;28;20550;-83
2021/04/06 06:58:00;;;;;;;6.47;0.93;;;3.20;99.90;;;;;;5088421;28;21058;-81
2021/04/06 07:00:26;;;;;;;4.07;0.80;;;3.30;99.90;;;;;;5087956;28;20252;-80
2021/04/06 07:02:53;;;;;;;1.73;0.60;;;3.10;99.90;;;;;;5050988;28;20271;-80
2021/04/06 07:05:22;;;;;;;2.20;0.73;;;2.90;99.90;;;;;;5066048;28;20199;-81
2021/04/06 07:07:51;;;;;;;4.67;0.90;;;2.90;99.90;;;;;;5083261;28;20210;-79
2021/04/06 07:10:20;;;;;;;2.00;0.50;;;2.70;99.90;;;;;;5082973;28;20271;-78
2021/04/06 07:12:52;;;;;;;3.73;0.77;;;2.80;99.90;;;;;;5088046;28;20202;-83
2021/04/06 07:15:18;;;;;;;2.07;0.80;;;2.60;99.90;;;;;;5085014;28;20221;-81
2021/04/06 07:17:47;;;;;;;2.57;0.80;;;2.90;99.90;;;;;;5083010;28;20208;-79
2021/04/06 07:20:23;;;;;;;2.70;0.70;;;2.90;99.90;;;;;;5080558;28;20258;-79
2021/04/06 07:22:56;;;;;;;2.07;0.73;;;3.20;99.90;;;;;;5082223;28;20293;-83
2021/04/06 07:25:22;;;;;;;2.40;0.60;;;3.40;99.90;;;;;;5083466;28;20416;-80
2021/04/06 07:27:53;;;;;;;3.27;1.10;;;3.80;99.90;;;;;;5071454;28;20202;-85
2021/04/06 07:30:20;;;;;;;2.67;0.50;;;3.70;99.90;;;;;;5071511;28;20202;-83
2021/04/06 07:32:48;;;;;;;1.87;0.70;;;3.60;99.90;;;;;;5083982;28;20260;-82
2021/04/06 07:35:14;;;;;;;4.63;0.40;;;3.30;99.90;;;;;;5064539;28;20223;-81
2021/04/06 07:37:47;;;;;;;3.70;0.70;;;3.40;99.90;;;;;;5082199;28;20220;-76
2021/04/06 07:40:19;;;;;;;1.80;0.77;;;3.40;99.90;;;;;;5091340;28;20242;-74
2021/04/06 07:42:47;;;;;;;3.67;0.80;;;3.40;99.90;;;;;;5075332;28;20287;-76
2021/04/06 07:45:22;;;;;;;2.47;0.80;;;3.60;99.90;;;;;;5077406;28;20296;-76
2021/04/06 07:47:49;;;;;;;4.00;0.87;;;3.30;99.90;;;;;;5074714;28;20218;-76
2021/04/06 07:50:40;;;;;;;4.27;1.23;;;4.00;99.90;;;;;;5077581;28;20231;-77
2021/04/06 07:53:26;;;;;;;4.03;0.70;;;4.30;99.90;;;;;;5076086;28;20198;-76
2021/04/06 07:55:58;;;;;;;3.53;1.00;;;4.70;99.90;;;;;;5076366;28;20300;-76
2021/04/06 07:58:45;;;;;;;1.50;0.70;;;5.10;99.90;;;;;;5077509;28;20284;-76
2021/04/06 08:01:25;;;;;;;4.33;0.60;;;5.40;99.90;;;;;;5081573;28;20195;-77
2021/04/06 08:03:54;;;;;;;1.50;0.70;;;5.40;99.90;;;;;;5078803;28;20247;-76
2021/04/06 08:06:27;;;;;;;2.30;0.60;;;5.40;99.90;;;;;;5076820;28;22461;-74
2021/04/06 08:08:53;;;;;;;5.70;0.93;;;5.50;99.90;;;;;;5081803;28;20256;-77
2021/04/06 08:11:33;;;;;;;3.13;0.53;;;6.10;99.90;;;;;;5080135;28;20218;-75
2021/04/06 08:14:00;;;;;;;3.10;0.73;;;6.50;99.90;;;;;;5078214;28;20206;-76
2021/04/06 08:16:26;;;;;;;2.77;1.00;;;6.50;99.90;;;;;;5079586;28;20236;-75
2021/04/06 08:18:54;;;;;;;7.57;1.43;;;6.20;99.90;;;;;;5077165;28;20303;-76
2021/04/06 08:21:25;;;;;;;6.30;0.83;;;5.70;99.90;;;;;;5075907;28;20228;-75
2021/04/06 08:23:52;;;;;;;2.40;1.03;;;5.60;99.90;;;;;;5077097;28;20215;-77
2021/04/06 08:26:29;;;;;;;2.80;0.60;;;5.90;99.90;;;;;;5063926;28;20195;-76
2021/04/06 08:28:56;;;;;;;3.43;0.97;;;5.80;99.90;;;;;;5077478;28;20542;-76
2021/04/06 08:31:29;;;;;;;3.43;0.87;;;5.80;99.90;;;;;;5080924;28;20275;-77
2021/04/06 08:34:30;;;;;;;3.60;0.80;;;5.90;99.90;;;;;;5077470;28;20238;-77
2021/04/06 08:37:11;;;;;;;3.80;0.80;;;5.90;99.90;;;;;;5080657;28;20205;-77
2021/04/06 08:39:39;;;;;;;4.97;1.27;;;5.70;99.90;;;;;;5080571;28;20279;-76
2021/04/06 08:42:07;;;;;;;3.30;0.83;;;5.60;99.90;;;;;;5075617;28;20199;-75
2021/04/06 08:44:35;;;;;;;2.70;1.23;;;5.50;99.90;;;;;;5078182;28;20211;-77
2021/04/06 08:47:02;;;;;;;3.43;0.90;;;5.50;99.90;;;;;;5079104;28;20234;-77
2021/04/06 08:49:29;;;;;;;4.43;0.90;;;5.50;99.90;;;;;;5062429;28;21367;-77
2021/04/06 08:52:00;;;;;;;4.23;0.90;;;5.60;99.90;;;;;;5062432;28;20709;-76
2021/04/06 08:54:31;;;;;;;2.53;0.80;;;5.70;99.90;;;;;;5075664;28;20360;-77
2021/04/06 08:57:00;;;;;;;10.13;1.00;;;5.70;99.90;;;;;;5081109;28;20551;-77
2021/04/06 08:59:32;;;;;;;5.90;0.70;;;5.30;99.90;;;;;;5082056;28;20231;-77
2021/04/06 09:02:01;;;;;;;4.57;0.80;;;6.00;99.90;;;;;;5075929;28;20612;-76
2021/04/06 09:04:37;;;;;;;6.63;1.20;;;6.50;99.90;;;;;;5080865;28;20227;-76
2021/04/06 09:07:29;;;;;;;6.47;0.90;;;6.30;99.90;;;;;;5073188;28;20981;-77
2021/04/06 09:10:01;;;;;;;8.53;1.20;;;7.50;99.90;;;;;;5079978;28;20195;-77
2021/04/06 09:12:28;;;;;;;3.17;1.00;;;7.60;99.90;;;;;;5078159;28;20238;-76
2021/04/06 09:14:55;;;;;;;4.97;1.57;;;7.30;99.90;;;;;;5059954;28;20288;-75
2021/04/06 09:17:33;;;;;;;5.77;1.13;;;7.20;99.90;;;;;;5078623;28;20306;-76
2021/04/06 09:20:00;;;;;;;4.20;1.07;;;6.10;99.90;;;;;;5078529;28;20225;-77
2021/04/06 09:22:27;;;;;;;1.53;0.43;;;5.50;99.90;;;;;;5077575;28;20729;-76
2021/04/06 09:24:53;;;;;;;1.40;0.43;;;5.20;99.90;;;;;;5060007;28;20211;-76
2021/04/06 09:27:20;;;;;;;2.00;0.50;;;4.60;99.90;;;;;;5079859;28;20295;-76
2021/04/06 09:29:48;;;;;;;0.77;0.50;;;4.40;99.90;;;;;;5079230;28;20666;-75
2021/04/06 09:32:18;;;;;;;1.90;0.87;;;4.50;99.90;;;;;;5076809;28;20198;-79
2021/04/06 09:34:50;;;;;;;1.93;0.53;;;4.40;99.90;;;;;;5078165;28;20230;-76
2021/04/06 09:37:27;;;;;;;2.93;0.67;;;4.30;99.90;;;;;;5075684;28;20207;-77
2021/04/06 09:39:57;;;;;;;3.53;0.50;;;4.40;99.90;;;;;;5065309;28;20267;-76
2021/04/06 09:42:24;;;;;;;1.93;0.83;;;4.30;99.90;;;;;;5077992;28;20700;-77
2021/04/06 09:44:51;;;;;;;4.73;0.70;;;5.00;99.90;;;;;;5063941;28;20210;-78
2021/04/06 09:47:21;;;;;;;1.13;0.17;;;5.40;99.90;;;;;;5076385;28;20219;-76
2021/04/06 09:49:52;;;;;;;3.43;0.50;;;6.00;99.90;;;;;;5075940;28;20757;-77
2021/04/06 09:52:21;;;;;;;1.13;0.50;;;6.10;99.90;;;;;;5084374;28;20203;-77
2021/04/06 09:54:52;;;;;;;3.53;0.80;;;6.50;99.90;;;;;;5068526;28;20282;-76
2021/04/06 09:57:24;;;;;;;2.93;0.83;;;6.10;99.90;;;;;;5076165;28;20290;-78
2021/04/06 09:59:53;;;;;;;0.70;0.63;;;6.30;99.90;;;;;;5077895;28;20192;-76
2021/04/06 10:02:26;;;;;;;2.33;0.70;;;7.10;99.90;;;;;;5092922;28;20195;-76
2021/04/06 10:04:54;;;;;;;3.10;0.70;;;7.70;99.90;;;;;;5075498;28;20211;-77
2021/04/06 10:07:22;;;;;;;2.13;0.70;;;8.00;99.90;;;;;;5080302;28;20203;-76
2021/04/06 10:10:05;;;;;;;2.17;0.90;;;8.20;99.90;;;;;;5076759;28;20256;-77
2021/04/06 10:12:32;;;;;;;2.50;0.47;;;8.20;99.90;;;;;;5082089;28;20210;-77
2021/04/06 10:15:00;;;;;;;2.97;0.90;;;7.90;99.90;;;;;;5078307;28;20219;-77
2021/04/06 10:17:41;;;;;;;0.63;0.27;;;7.40;99.90;;;;;;5076668;28;20245;-77
2021/04/06 10:20:35;;;;;;;3.00;0.33;;;6.00;99.90;;;;;;5086368;28;20207;-77
2021/04/06 10:23:02;;;;;;;1.77;0.43;;;5.30;99.90;;;;;;5078407;28;20533;-78
2021/04/06 10:25:34;;;;;;;3.77;0.70;;;5.10;99.90;;;;;;5079625;28;20257;-77
2021/04/06 10:28:06;;;;;;;3.10;0.60;;;4.90;99.90;;;;;;5079932;28;20218;-78
2021/04/06 10:30:49;;;;;;;3.57;0.73;;;4.80;99.90;;;;;;5078597;28;20230;-79
2021/04/06 10:33:20;;;;;;;2.60;0.93;;;4.80;99.90;;;;;;5085398;28;20971;-78
2021/04/06 10:35:56;;;;;;;2.00;0.40;;;4.90;99.90;;;;;;5078690;28;20210;-77
2021/04/06 10:38:34;;;;;;;0.93;0.70;;;4.60;99.90;;;;;;5079137;28;20549;-78
2021/04/06 10:41:05;;;;;;;0.87;0.30;;;4.30;99.90;;;;;;5082477;28;20655;-77
2021/04/06 10:43:37;;;;;;;4.10;0.40;;;4.50;99.90;;;;;;5082268;28;20272;-77
2021/04/06 10:46:08;;;;;;;3.03;0.50;;;4.70;99.90;;;;;;5080752;28;20222;-77
2021/04/06 10:48:40;;;;;;;1.50;0.77;;;5.00;99.90;;;;;;5075816;28;20245;-77
2021/04/06 10:51:09;;;;;;;4.00;0.70;;;5.40;99.90;;;;;;5080295;28;20244;-78
2021/04/06 10:53:46;;;;;;;1.50;0.60;;;5.70;99.90;;;;;;5079371;28;20655;-77
2021/04/06 10:56:13;;;;;;;0.80;0.43;;;6.00;99.90;;;;;;5078457;28;20258;-76
2021/04/06 10:58:53;;;;;;;0.97;0.50;;;6.40;99.90;;;;;;5079067;28;20206;-77
2021/04/06 11:01:23;;;;;;;3.67;0.60;;;6.80;99.90;;;;;;5076012;28;20202;-76
2021/04/06 11:03:52;;;;;;;2.97;0.67;;;6.60;99.90;;;;;;5079248;28;20708;-77
2021/04/06 11:06:30;;;;;;;2.07;0.77;;;6.80;99.90;;;;;;5079069;28;20795;-77
2021/04/06 11:08:58;;;;;;;1.57;0.80;;;6.70;99.90;;;;;;5077013;28;20207;-77
2021/04/06 11:11:33;;;;;;;0.90;0.40;;;5.60;99.90;;;;;;5074026;28;20203;-76
2021/04/06 11:14:04;;;;;;;2.00;0.70;;;4.90;99.90;;;;;;5077214;28;20198;-76
2021/04/06 11:16:31;;;;;;;3.07;0.40;;;4.90;99.90;;;;;;5084164;28;20856;-78
2021/04/06 11:19:01;;;;;;;0.60;0.30;;;4.80;99.90;;;;;;5092246;28;20206;-77
2021/04/06 11:21:28;;;;;;;4.03;0.60;;;4.70;99.90;;;;;;5078432;28;20286;-75
2021/04/06 11:23:55;;;;;;;2.10;0.60;;;4.20;99.90;;;;;;5075624;28;20332;-77
2021/04/06 11:26:21;;;;;;;3.00;0.40;;;4.40;99.90;;;;;;5078303;28;20295;-77
2021/04/06 11:28:48;;;;;;;2.27;0.60;;;3.90;99.90;;;;;;5077411;28;20199;-76
2021/04/06 11:31:15;;;;;;;6.93;0.77;;;3.90;99.90;;;;;;5062007;28;20646;-77
2021/04/06 11:33:41;;;;;;;4.33;0.80;;;4.10;99.90;;;;;;5079853;28;20293;-77
2021/04/06 11:36:08;;;;;;;1.03;0.73;;;3.90;99.90;;;;;;5077005;28;20670;-77
2021/04/06 11:38:34;;;;;;;2.23;0.53;;;3.50;99.90;;;;;;5076345;28;20255;-76
2021/04/06 11:41:01;;;;;;;4.47;0.80;;;3.60;99.90;;;;;;5075319;28;20301;-77
2021/04/06 11:43:28;;;;;;;3.40;0.80;;;3.80;99.90;;;;;;5076166;28;20283;-78
2021/04/06 11:45:55;;;;;;;2.10;0.67;;;3.70;99.90;;;;;;5061924;28;20197;-77
2021/04/06 11:48:21;;;;;;;1.13;0.50;;;3.90;99.90;;;;;;5061068;28;20573;-77
2021/04/06 11:50:48;;;;;;;2.07;0.50;;;4.00;99.90;;;;;;5076273;28;20230;-79
2021/04/06 11:53:16;;;;;;;2.23;0.43;;;4.90;99.90;;;;;;5077111;28;20232;-78
2021/04/06 11:55:42;;;;;;;1.93;0.40;;;4.80;99.90;;;;;;5077903;28;20221;-78
2021/04/06 11:58:09;;;;;;;3.13;0.57;;;5.00;99.90;;;;;;5078921;28;20237;-78
2021/04/06 12:00:35;;;;;;;3.97;0.77;;;4.90;99.90;;;;;;5066636;28;20995;-78
2021/04/06 12:03:03;;;;;;;3.87;0.73;;;5.10;99.90;;;;;;5076843;28;20247;-78
2021/04/06 12:05:29;;;;;;;3.37;0.60;;;5.20;99.90;;;;;;5075618;28;20238;-77
2021/04/06 12:07:55;;;;;;;1.13;0.40;;;4.90;99.90;;;;;;5076940;28;20737;-76
2021/04/06 12:10:22;;;;;;;1.13;0.30;;;4.00;99.90;;;;;;5073790;28;20283;-76
2021/04/06 12:12:49;;;;;;;0.87;0.40;;;3.10;99.90;;;;;;5074588;28;20248;-77
2021/04/06 12:15:16;;;;;;;0.63;0.40;;;3.00;99.90;;;;;;5074736;28;20309;-77
2021/04/06 12:17:43;;;;;;;2.77;0.50;;;3.30;99.90;;;;;;5074214;28;20203;-76
2021/04/06 12:20:09;;;;;;;1.57;0.67;;;3.60;99.90;;;;;;5075023;28;20227;-76
2021/04/06 12:22:36;;;;;;;0.60;0.40;;;3.80;99.90;;;;;;5077444;28;20262;-76
2021/04/06 12:25:02;;;;;;;1.30;0.50;;;4.00;99.90;;;;;;5062288;28;20275;-76
2021/04/06 12:27:29;;;;;;;2.73;0.67;;;3.90;99.90;;;;;;5079512;28;20206;-78
2021/04/06 12:29:55;;;;;;;1.60;0.57;;;4.10;99.90;;;;;;5062418;28;20282;-77
2021/04/06 12:32:21;;;;;;;2.30;0.63;;;4.40;99.90;;;;;;5074206;28;20246;-78
2021/04/06 12:34:48;;;;;;;4.50;0.73;;;4.50;99.90;;;;;;5076912;28;20202;-77
2021/04/06 12:37:14;;;;;;;3.07;0.70;;;4.50;99.90;;;;;;5076007;28;20638;-79
2021/04/06 12:40:01;;;;;;;2.43;0.40;;;4.80;99.90;;;;;;5078191;28;20219;-79
2021/04/06 12:42:28;;;;;;;1.03;0.30;;;5.10;99.90;;;;;;5077106;28;20218;-75
2021/04/06 12:44:54;;;;;;;1.43;0.50;;;5.50;99.90;;;;;;5062104;28;20198;-76
2021/04/06 12:47:21;;;;;;;4.67;1.10;;;6.20;99.90;;;;;;5077406;28;20237;-77
2021/04/06 12:49:48;;;;;;;3.90;1.40;;;7.00;99.90;;;;;;5065131;28;20210;-77
2021/04/06 12:52:16;;;;;;;3.73;0.60;;;6.80;99.90;;;;;;5079209;28;20221;-75
2021/04/06 12:54:43;;;;;;;5.87;1.00;;;6.00;99.90;;;;;;5079535;28;20210;-76
2021/04/06 12:57:10;;;;;;;5.67;1.10;;;5.70;99.90;;;;;;5075602;28;20227;-76
2021/04/06 12:59:37;;;;;;;2.33;0.53;;;5.10;99.90;;;;;;5078494;28;20201;-77
2021/04/06 13:02:03;;;;;;;0.97;0.43;;;5.00;99.90;;;;;;5047813;28;20245;-76
2021/04/06 13:04:30;;;;;;;2.10;0.57;;;4.70;99.90;;;;;;5077492;28;20199;-77
2021/04/06 13:06:56;;;;;;;2.40;0.50;;;4.80;99.90;;;;;;5063400;28;20235;-76
2021/04/06 13:09:25;;;;;;;1.57;0.37;;;4.50;99.90;;;;;;5076733;28;20207;-76
2021/04/06 13:11:51;;;;;;;5.00;0.40;;;4.70;99.90;;;;;;5082884;28;20535;-76
2021/04/06 13:14:17;;;;;;;2.03;0.47;;;4.80;99.90;;;;;;5063340;28;20195;-78
2021/04/06 13:16:44;;;;;;;0.67;0.30;;;5.20;99.90;;;;;;5068142;28;20222;-77